sensor_id;sensor_type;location;lat;lon;timestamp;pressure;altitude;pressure_sealevel;temperature;humidity
5500;BME280;2772;42.700;23.304;2022-11-13T05:15:22;96431.19;;;11.61;100.00
5500;BME280;2772;42.700;23.304;2022-11-13T05:17:49;96438.38;;;11.60;100.00
5500;BME280;2772;42.700;23.304;2022-11-13T05:20:16;96429.63;;;11.55;100.00
5500;BME280;2772;42.700;23.304;2022-11-13T05:22:43;96434.81;;;11.41;100.00
5500;BME280;2772;42.700;23.304;2022-11-13T05:25:09;96442.47;;;11.48;100.00
5500;BME280;2772;42.700;23.304;2022-11-13T05:27:36;96440.34;;;11.50;100.00
5500;BME280;2772;42.700;23.304;2022-11-13T05:30:03;96431.59;;;11.44;100.00
5500;BME280;2772;42.700;23.304;2022-11-13T05:32:32;96437.22;;;11.43;100.00
5500;BME280;2772;42.700;23.304;2022-11-13T05:34:59;96443.09;;;11.40;100.00
5500;BME280;2772;42.700;23.304;2022-11-13T05:37:27;96433.25;;;11.35;100.00
5500;BME280;2772;42.700;23.304;2022-11-13T05:39:54;96443.31;;;11.43;100.00
5500;BME280;2772;42.700;23.304;2022-11-13T05:42:20;96450.56;;;11.38;100.00
5500;BME280;2772;42.700;23.304;2022-11-13T05:44:47;96456.38;;;11.45;100.00
5500;BME280;2772;42.700;23.304;2022-11-13T05:47:14;96452.59;;;11.51;100.00
5500;BME280;2772;42.700;23.304;2022-11-13T05:49:42;96457.47;;;11.44;100.00
5500;BME280;2772;42.700;23.304;2022-11-13T05:52:08;96466.50;;;11.48;100.00
5500;BME280;2772;42.700;23.304;2022-11-13T05:54:35;96462.56;;;11.35;100.00
5500;BME280;2772;42.700;23.304;2022-11-13T05:57:02;96454.03;;;11.38;100.00
5500;BME280;2772;42.700;23.304;2022-11-13T05:59:29;96462.63;;;11.30;100.00
5500;BME280;2772;42.700;23.304;2022-11-13T06:01:55;96458.81;;;11.41;100.00
5500;BME280;2772;42.700;23.304;2022-11-13T06:04:22;96464.19;;;11.36;100.00
5500;BME280;2772;42.700;23.304;2022-11-13T06:06:50;96454.03;;;11.38;100.00
5500;BME280;2772;42.700;23.304;2022-11-13T06:09:17;96458.28;;;11.44;100.00
5500;BME280;2772;42.700;23.304;2022-11-13T06:11:44;96469.41;;;11.51;100.00
5500;BME280;2772;42.700;23.304;2022-11-13T06:14:11;96471.25;;;11.56;100.00
5500;BME280;2772;42.700;23.304;2022-11-13T06:16:38;96468.88;;;11.49;100.00
5500;BME280;2772;42.700;23.304;2022-11-13T06:19:07;96466.28;;;11.44;100.00
5500;BME280;2772;42.700;23.304;2022-11-13T06:21:36;96467.06;;;11.45;100.00
5500;BME280;2772;42.700;23.304;2022-11-13T06:24:06;96464.31;;;11.55;100.00
5500;BME280;2772;42.700;23.304;2022-11-13T06:26:34;96469.94;;;11.53;100.00
5500;BME280;2772;42.700;23.304;2022-11-13T06:29:02;96477.88;;;11.63;100.00
5500;BME280;2772;42.700;23.304;2022-11-13T06:31:31;96476.81;;;11.59;100.00
5500;BME280;2772;42.700;23.304;2022-11-13T06:33:58;96469.09;;;11.58;100.00
5500;BME280;2772;42.700;23.304;2022-11-13T06:36:28;96485.28;;;11.71;100.00
5500;BME280;2772;42.700;23.304;2022-11-13T06:38:55;96467.41;;;11.72;100.00
5500;BME280;2772;42.700;23.304;2022-11-13T06:41:25;96483.22;;;11.63;100.00
5500;BME280;2772;42.700;23.304;2022-11-13T06:43:53;96481.78;;;11.76;100.00
5500;BME280;2772;42.700;23.304;2022-11-13T06:46:21;96483.41;;;11.77;100.00
5500;BME280;2772;42.700;23.304;2022-11-13T06:48:49;96473.69;;;11.86;100.00
5500;BME280;2772;42.700;23.304;2022-11-13T06:51:17;96471.31;;;11.84;100.00
5500;BME280;2772;42.700;23.304;2022-11-13T06:53:45;96478.31;;;11.80;100.00
5500;BME280;2772;42.700;23.304;2022-11-13T06:56:12;96472.19;;;11.75;100.00
5500;BME280;2772;42.700;23.304;2022-11-13T06:58:41;96474.84;;;11.75;100.00
5500;BME280;2772;42.700;23.304;2022-11-13T07:01:09;96474.94;;;11.65;100.00
5500;BME280;2772;42.700;23.304;2022-11-13T07:03:36;96473.28;;;11.74;100.00
5500;BME280;2772;42.700;23.304;2022-11-13T07:06:05;96471.91;;;11.76;100.00
5500;BME280;2772;42.700;23.304;2022-11-13T07:37:45;96491.22;;;12.49;100.00
5500;BME280;2772;42.700;23.304;2022-11-13T07:40:12;96492.94;;;12.40;100.00
5500;BME280;2772;42.700;23.304;2022-11-13T07:42:39;96499.13;;;12.35;100.00
5500;BME280;2772;42.700;23.304;2022-11-13T07:45:06;96489.91;;;12.23;100.00
5500;BME280;2772;42.700;23.304;2022-11-13T07:47:33;96499.66;;;12.09;100.00
5500;BME280;2772;42.700;23.304;2022-11-13T07:50:00;96503.66;;;12.11;100.00
5500;BME280;2772;42.700;23.304;2022-11-13T07:52:27;96501.28;;;12.10;100.00
5500;BME280;2772;42.700;23.304;2022-11-13T07:54:55;96498.06;;;12.08;100.00
5500;BME280;2772;42.700;23.304;2022-11-13T07:57:22;96500.47;;;12.09;100.00
5500;BME280;2772;42.700;23.304;2022-11-13T07:59:49;96493.06;;;12.01;100.00
5500;BME280;2772;42.700;23.304;2022-11-13T08:02:16;96486.00;;;12.39;100.00
5500;BME280;2772;42.700;23.304;2022-11-13T08:04:42;96484.91;;;12.40;100.00
5500;BME280;2772;42.700;23.304;2022-11-13T08:07:10;96495.44;;;12.31;100.00
5500;BME280;2772;42.700;23.304;2022-11-13T08:09:37;96496.22;;;12.32;100.00
5500;BME280;2772;42.700;23.304;2022-11-13T08:12:05;96496.47;;;12.35;100.00
5500;BME280;2772;42.700;23.304;2022-11-13T08:14:32;96493.34;;;12.28;100.00
5500;BME280;2772;42.700;23.304;2022-11-13T08:16:59;96501.69;;;12.22;100.00
5500;BME280;2772;42.700;23.304;2022-11-13T08:19:26;96496.34;;;12.22;100.00
5500;BME280;2772;42.700;23.304;2022-11-13T08:21:54;96499.75;;;12.27;100.00
5500;BME280;2772;42.700;23.304;2022-11-13T08:24:21;96501.34;;;12.28;100.00
5500;BME280;2772;42.700;23.304;2022-11-13T08:26:48;96499.94;;;12.36;100.00
5500;BME280;2772;42.700;23.304;2022-11-13T08:29:16;96498.28;;;12.40;100.00
5500;BME280;2772;42.700;23.304;2022-11-13T08:31:43;96501.44;;;12.47;100.00
5500;BME280;2772;42.700;23.304;2022-11-13T08:34:09;96504.72;;;12.39;100.00
5500;BME280;2772;42.700;23.304;2022-11-13T08:36:36;96499.38;;;12.39;100.00
5500;BME280;2772;42.700;23.304;2022-11-13T08:39:03;96500.56;;;12.28;100.00
5500;BME280;2772;42.700;23.304;2022-11-13T08:41:30;96500.22;;;12.34;100.00
5500;BME280;2772;42.700;23.304;2022-11-13T08:43:56;96501.56;;;12.32;100.00
5500;BME280;2772;42.700;23.304;2022-11-13T09:43:59;96511.25;;;13.59;100.00
5500;BME280;2772;42.700;23.304;2022-11-13T09:46:35;96496.84;;;13.55;100.00
5500;BME280;2772;42.700;23.304;2022-11-13T09:49:11;96508.22;;;13.47;100.00
5500;BME280;2772;42.700;23.304;2022-11-13T09:51:49;96505.34;;;13.44;100.00
5500;BME280;2772;42.700;23.304;2022-11-13T09:54:17;96498.31;;;13.48;100.00
5500;BME280;2772;42.700;23.304;2022-11-13T09:56:59;96496.22;;;13.45;100.00
5500;BME280;2772;42.700;23.304;2022-11-13T09:59:38;96491.59;;;13.50;100.00
5500;BME280;2772;42.700;23.304;2022-11-13T10:02:15;96495.19;;;13.59;100.00
5500;BME280;2772;42.700;23.304;2022-11-13T10:04:53;96488.53;;;13.38;100.00
5500;BME280;2772;42.700;23.304;2022-11-13T10:07:30;96492.31;;;13.37;100.00
5500;BME280;2772;42.700;23.304;2022-11-13T10:10:12;96498.06;;;13.44;100.00
5500;BME280;2772;42.700;23.304;2022-11-13T10:12:44;96486.81;;;13.47;100.00
5500;BME280;2772;42.700;23.304;2022-11-13T10:15:16;96490.03;;;13.44;100.00
5500;BME280;2772;42.700;23.304;2022-11-13T10:17:45;96482.41;;;13.38;100.00
5500;BME280;2772;42.700;23.304;2022-11-13T10:20:20;96491.72;;;13.40;100.00
5500;BME280;2772;42.700;23.304;2022-11-13T10:22:49;96486.81;;;13.47;100.00
5500;BME280;2772;42.700;23.304;2022-11-13T10:25:18;96480.66;;;13.47;100.00
5500;BME280;2772;42.700;23.304;2022-11-13T10:27:48;96477.03;;;13.56;100.00
5500;BME280;2772;42.700;23.304;2022-11-13T10:33:39;96473.19;;;13.62;100.00
5500;BME280;2772;42.700;23.304;2022-11-13T10:36:15;96479.47;;;13.71;100.00
5500;BME280;2772;42.700;23.304;2022-11-13T10:38:48;96478.22;;;13.82;100.00
5500;BME280;2772;42.700;23.304;2022-11-13T10:41:19;96470.53;;;13.62;100.00
5500;BME280;2772;42.700;23.304;2022-11-13T10:43:50;96472.97;;;13.59;100.00
5500;BME280;2772;42.700;23.304;2022-11-13T10:46:19;96461.94;;;13.47;100.00
5500;BME280;2772;42.700;23.304;2022-11-13T10:48:47;96463.56;;;13.43;100.00
5500;BME280;2772;42.700;23.304;2022-11-13T10:51:21;96461.28;;;13.55;100.00
5500;BME280;2772;42.700;23.304;2022-11-13T10:53:49;96462.16;;;13.50;100.00
5500;BME280;2772;42.700;23.304;2022-11-13T10:56:21;96458.13;;;13.66;100.00
5500;BME280;2772;42.700;23.304;2022-11-13T10:59:01;96456.78;;;13.69;100.00
5500;BME280;2772;42.700;23.304;2022-11-13T11:01:29;96457.38;;;13.79;100.00
5500;BME280;2772;42.700;23.304;2022-11-13T11:03:57;96458.78;;;13.77;100.00
5500;BME280;2772;42.700;23.304;2022-11-13T11:06:31;96460.88;;;13.80;100.00
5500;BME280;2772;42.700;23.304;2022-11-13T11:09:05;96462.38;;;13.86;100.00
5500;BME280;2772;42.700;23.304;2022-11-13T11:11:33;96453.31;;;13.82;100.00
5500;BME280;2772;42.700;23.304;2022-11-13T11:14:20;96443.56;;;13.72;100.00
5500;BME280;2772;42.700;23.304;2022-11-13T11:16:51;96448.25;;;13.80;100.00
5500;BME280;2772;42.700;23.304;2022-11-13T11:19:21;96447.50;;;13.93;100.00
5500;BME280;2772;42.700;23.304;2022-11-13T11:21:54;96442.25;;;13.88;100.00
5500;BME280;2772;42.700;23.304;2022-11-13T11:24:25;96447.88;;;13.87;100.00
5500;BME280;2772;42.700;23.304;2022-11-13T11:27:00;96443.94;;;13.84;100.00
5500;BME280;2772;42.700;23.304;2022-11-13T11:29:32;96437.06;;;13.78;100.00
5500;BME280;2772;42.700;23.304;2022-11-13T11:32:10;96442.88;;;13.67;100.00
5500;BME280;2772;42.700;23.304;2022-11-13T11:34:42;96439.19;;;13.63;100.00
5500;BME280;2772;42.700;23.304;2022-11-13T11:37:12;96438.13;;;13.77;100.00
5500;BME280;2772;42.700;23.304;2022-11-13T11:39:42;96433.59;;;13.78;100.00
5500;BME280;2772;42.700;23.304;2022-11-13T11:42:19;96433.81;;;13.81;100.00
5500;BME280;2772;42.700;23.304;2022-11-13T11:44:59;96426.22;;;13.70;100.00
5500;BME280;2772;42.700;23.304;2022-11-13T11:47:29;96428.28;;;13.59;100.00
5500;BME280;2772;42.700;23.304;2022-11-13T11:49:57;96430.59;;;13.66;100.00
5500;BME280;2772;42.700;23.304;2022-11-13T11:52:48;96422.94;;;13.73;100.00
5500;BME280;2772;42.700;23.304;2022-11-13T11:58:55;96417.97;;;13.66;100.00
5500;BME280;2772;42.700;23.304;2022-11-13T12:01:37;96420.31;;;13.54;100.00
5500;BME280;2772;42.700;23.304;2022-11-13T12:04:20;96420.91;;;13.51;100.00
5500;BME280;2772;42.700;23.304;2022-11-13T12:07:05;96423.63;;;13.65;100.00
5500;BME280;2772;42.700;23.304;2022-11-13T12:09:37;96412.53;;;13.71;100.00
5500;BME280;2772;42.700;23.304;2022-11-13T12:12:12;96423.84;;;13.68;100.00
5500;BME280;2772;42.700;23.304;2022-11-13T12:14:50;96423.50;;;13.56;100.00
5500;BME280;2772;42.700;23.304;2022-11-13T12:17:41;96408.50;;;13.55;100.00
5500;BME280;2772;42.700;23.304;2022-11-13T12:20:21;96408.72;;;13.59;100.00
5500;BME280;2772;42.700;23.304;2022-11-13T12:23:01;96412.47;;;13.76;100.00
5500;BME280;2772;42.700;23.304;2022-11-13T12:25:34;96406.00;;;13.77;100.00
5500;BME280;2772;42.700;23.304;2022-11-13T12:28:13;96402.66;;;13.85;100.00
5500;BME280;2772;42.700;23.304;2022-11-13T12:30:49;96404.16;;;13.91;100.00
5500;BME280;2772;42.700;23.304;2022-11-13T12:33:28;96399.91;;;13.90;100.00
5500;BME280;2772;42.700;23.304;2022-11-13T12:36:00;96397.94;;;14.09;100.00
5500;BME280;2772;42.700;23.304;2022-11-13T12:38:39;96390.81;;;14.18;100.00
5500;BME280;2772;42.700;23.304;2022-11-13T12:41:14;96401.34;;;14.28;100.00
5500;BME280;2772;42.700;23.304;2022-11-13T12:43:52;96403.84;;;14.25;100.00
5500;BME280;2772;42.700;23.304;2022-11-13T12:46:32;96402.72;;;14.12;100.00
5500;BME280;2772;42.700;23.304;2022-11-13T12:49:00;96396.44;;;14.03;100.00
5500;BME280;2772;42.700;23.304;2022-11-13T12:51:37;96388.28;;;13.95;100.00
5500;BME280;2772;42.700;23.304;2022-11-13T12:54:08;96391.66;;;14.00;100.00
5500;BME280;2772;42.700;23.304;2022-11-13T12:56:35;96399.59;;;14.05;100.00
5500;BME280;2772;42.700;23.304;2022-11-13T12:59:08;96396.94;;;14.05;100.00
5500;BME280;2772;42.700;23.304;2022-11-13T13:01:43;96394.94;;;13.97;100.00
5500;BME280;2772;42.700;23.304;2022-11-13T13:04:33;96386.81;;;14.02;100.00
5500;BME280;2772;42.700;23.304;2022-11-13T13:07:21;96395.72;;;13.98;100.00
5500;BME280;2772;42.700;23.304;2022-11-13T13:10:03;96389.31;;;13.67;100.00
5500;BME280;2772;42.700;23.304;2022-11-13T13:12:43;96392.41;;;13.74;100.00
5500;BME280;2772;42.700;23.304;2022-11-13T13:15:29;96390.53;;;13.74;100.00
5500;BME280;2772;42.700;23.304;2022-11-13T13:18:09;96393.00;;;13.71;100.00
5500;BME280;2772;42.700;23.304;2022-11-13T13:20:37;96386.88;;;13.70;100.00
5500;BME280;2772;42.700;23.304;2022-11-13T13:23:08;96386.66;;;13.67;100.00
5500;BME280;2772;42.700;23.304;2022-11-13T13:25:37;96383.88;;;13.72;100.00
5500;BME280;2772;42.700;23.304;2022-11-13T13:28:16;96391.13;;;13.71;100.00
5500;BME280;2772;42.700;23.304;2022-11-13T13:30:51;96383.09;;;13.71;100.00
5500;BME280;2772;42.700;23.304;2022-11-13T13:33:21;96381.06;;;13.63;100.00
5500;BME280;2772;42.700;23.304;2022-11-13T13:35:56;96371.34;;;13.54;100.00
5500;BME280;2772;42.700;23.304;2022-11-13T13:38:31;96378.97;;;13.47;100.00
5500;BME280;2772;42.700;23.304;2022-11-13T13:41:15;96378.88;;;13.52;100.00
5500;BME280;2772;42.700;23.304;2022-11-13T13:43:54;96378.47;;;13.58;100.00
5500;BME280;2772;42.700;23.304;2022-11-13T13:46:24;96366.56;;;13.51;100.00
5500;BME280;2772;42.700;23.304;2022-11-13T13:48:54;96377.56;;;13.49;100.00
5500;BME280;2772;42.700;23.304;2022-11-13T13:51:26;96377.75;;;13.39;100.00
5500;BME280;2772;42.700;23.304;2022-11-13T13:53:55;96369.72;;;13.39;100.00
5500;BME280;2772;42.700;23.304;2022-11-13T13:56:24;96371.81;;;13.42;100.00
5500;BME280;2772;42.700;23.304;2022-11-13T13:58:52;96360.22;;;13.47;100.00
5500;BME280;2772;42.700;23.304;2022-11-13T14:01:27;96372.19;;;13.36;100.00
5500;BME280;2772;42.700;23.304;2022-11-13T14:04:05;96375.78;;;13.45;100.00
5500;BME280;2772;42.700;23.304;2022-11-13T14:06:32;96372.97;;;13.36;100.00
5500;BME280;2772;42.700;23.304;2022-11-13T14:09:09;96363.06;;;13.37;100.00
5500;BME280;2772;42.700;23.304;2022-11-13T14:11:37;96370.50;;;13.40;100.00
5500;BME280;2772;42.700;23.304;2022-11-13T14:14:08;96362.75;;;13.38;100.00
5500;BME280;2772;42.700;23.304;2022-11-13T14:16:45;96360.44;;;13.32;100.00
5500;BME280;2772;42.700;23.304;2022-11-13T14:19:12;96357.59;;;13.28;100.00
5500;BME280;2772;42.700;23.304;2022-11-13T14:21:39;96362.66;;;13.30;100.00
5500;BME280;2772;42.700;23.304;2022-11-13T14:24:09;96360.94;;;13.20;100.00
5500;BME280;2772;42.700;23.304;2022-11-13T14:26:41;96359.59;;;13.18;100.00
5500;BME280;2772;42.700;23.304;2022-11-13T14:29:18;96358.19;;;13.07;100.00
5500;BME280;2772;42.700;23.304;2022-11-13T14:31:46;96363.94;;;12.95;100.00
5500;BME280;2772;42.700;23.304;2022-11-13T14:34:15;96359.69;;;12.94;100.00
5500;BME280;2772;42.700;23.304;2022-11-13T14:36:43;96356.34;;;12.83;100.00
5500;BME280;2772;42.700;23.304;2022-11-13T14:39:19;96351.66;;;12.75;100.00
5500;BME280;2772;42.700;23.304;2022-11-13T14:41:50;96345.47;;;12.80;100.00
5500;BME280;2772;42.700;23.304;2022-11-13T14:44:24;96348.28;;;12.70;100.00
5500;BME280;2772;42.700;23.304;2022-11-13T14:46:59;96347.19;;;12.71;100.00
5500;BME280;2772;42.700;23.304;2022-11-13T14:49:27;96353.84;;;12.73;100.00
5500;BME280;2772;42.700;23.304;2022-11-13T14:51:55;96344.00;;;12.69;100.00
5500;BME280;2772;42.700;23.304;2022-11-13T14:54:28;96347.34;;;12.61;100.00
5500;BME280;2772;42.700;23.304;2022-11-13T14:57:05;96331.78;;;12.63;100.00
5500;BME280;2772;42.700;23.304;2022-11-13T14:59:32;96340.53;;;12.50;100.00
5500;BME280;2772;42.700;23.304;2022-11-13T15:01:59;96338.38;;;12.52;100.00
5500;BME280;2772;42.700;23.304;2022-11-13T15:04:25;96348.84;;;12.48;100.00
5500;BME280;2772;42.700;23.304;2022-11-13T15:06:56;96343.19;;;12.50;100.00
5500;BME280;2772;42.700;23.304;2022-11-13T15:09:24;96337.25;;;12.34;100.00
5500;BME280;2772;42.700;23.304;2022-11-13T15:11:51;96336.81;;;12.27;100.00
5500;BME280;2772;42.700;23.304;2022-11-13T15:14:20;96330.75;;;12.22;100.00
5500;BME280;2772;42.700;23.304;2022-11-13T15:16:48;96333.34;;;12.27;100.00
5500;BME280;2772;42.700;23.304;2022-11-13T15:19:19;96342.44;;;12.26;100.00
5500;BME280;2772;42.700;23.304;2022-11-13T15:21:46;96337.22;;;12.16;100.00
5500;BME280;2772;42.700;23.304;2022-11-13T15:24:13;96330.69;;;12.27;100.00
5500;BME280;2772;42.700;23.304;2022-11-13T15:26:40;96330.88;;;12.30;100.00
5500;BME280;2772;42.700;23.304;2022-11-13T15:29:06;96333.56;;;12.30;100.00
5500;BME280;2772;42.700;23.304;2022-11-13T15:31:36;96336.88;;;12.22;100.00
5500;BME280;2772;42.700;23.304;2022-11-13T15:34:04;96330.50;;;12.18;100.00
5500;BME280;2772;42.700;23.304;2022-11-13T15:36:31;96333.94;;;12.24;100.00
5500;BME280;2772;42.700;23.304;2022-11-13T15:38:57;96325.56;;;12.07;100.00
5500;BME280;2772;42.700;23.304;2022-11-13T15:41:27;96338.84;;;12.12;100.00
5500;BME280;2772;42.700;23.304;2022-11-13T15:43:55;96340.38;;;12.18;100.00
5500;BME280;2772;42.700;23.304;2022-11-13T15:46:23;96328.94;;;12.17;100.00
5500;BME280;2772;42.700;23.304;2022-11-13T15:48:52;96331.09;;;12.15;100.00
5500;BME280;2772;42.700;23.304;2022-11-13T15:51:22;96327.75;;;12.05;100.00
5500;BME280;2772;42.700;23.304;2022-11-13T15:53:52;96325.84;;;12.05;100.00
5500;BME280;2772;42.700;23.304;2022-11-13T15:56:20;96317.78;;;11.87;100.00
5500;BME280;2772;42.700;23.304;2022-11-13T15:58:46;96326.56;;;11.92;100.00
5500;BME280;2772;42.700;23.304;2022-11-13T16:01:14;96330.47;;;12.00;100.00
5500;BME280;2772;42.700;23.304;2022-11-13T16:03:41;96326.41;;;12.02;100.00
5500;BME280;2772;42.700;23.304;2022-11-13T16:06:10;96339.28;;;12.00;100.00
5500;BME280;2772;42.700;23.304;2022-11-13T16:08:38;96333.13;;;12.00;100.00
5500;BME280;2772;42.700;23.304;2022-11-13T16:11:04;96333.38;;;12.03;100.00
5500;BME280;2772;42.700;23.304;2022-11-13T16:13:31;96335.81;;;12.00;100.00
5500;BME280;2772;42.700;23.304;2022-11-13T16:15:58;96344.06;;;12.03;100.00
5500;BME280;2772;42.700;23.304;2022-11-13T16:18:28;96338.72;;;12.03;100.00
5500;BME280;2772;42.700;23.304;2022-11-13T16:20:56;96333.25;;;11.90;100.00
5500;BME280;2772;42.700;23.304;2022-11-13T16:23:24;96329.50;;;11.91;100.00
5500;BME280;2772;42.700;23.304;2022-11-13T16:25:52;96341.25;;;11.90;100.00
5500;BME280;2772;42.700;23.304;2022-11-13T16:28:20;96335.97;;;11.85;100.00
5500;BME280;2772;42.700;23.304;2022-11-13T16:30:51;96337.84;;;11.84;100.00
5500;BME280;2772;42.700;23.304;2022-11-13T16:33:18;96321.31;;;11.82;100.00
5500;BME280;2772;42.700;23.304;2022-11-13T16:35:44;96330.75;;;11.75;100.00
5500;BME280;2772;42.700;23.304;2022-11-13T16:38:13;96332.00;;;11.82;100.00
5500;BME280;2772;42.700;23.304;2022-11-13T16:40:41;96334.66;;;11.82;100.00
5500;BME280;2772;42.700;23.304;2022-11-13T16:43:10;96331.75;;;11.79;100.00
5500;BME280;2772;42.700;23.304;2022-11-13T16:45:37;96332.78;;;11.83;100.00
5500;BME280;2772;42.700;23.304;2022-11-13T16:48:04;96330.41;;;11.81;100.00
5500;BME280;2772;42.700;23.304;2022-11-13T16:50:32;96338.66;;;11.85;100.00
5500;BME280;2772;42.700;23.304;2022-11-13T16:53:01;96334.16;;;11.80;100.00
5500;BME280;2772;42.700;23.304;2022-11-13T16:55:27;96331.22;;;11.82;100.00
5500;BME280;2772;42.700;23.304;2022-11-13T16:57:56;96334.22;;;11.75;100.00
5500;BME280;2772;42.700;23.304;2022-11-13T17:00:23;96339.06;;;11.68;100.00
5500;BME280;2772;42.700;23.304;2022-11-13T17:02:51;96349.06;;;11.53;100.00
5500;BME280;2772;42.700;23.304;2022-11-13T17:05:19;96340.53;;;11.51;100.00
5500;BME280;2772;42.700;23.304;2022-11-13T17:07:46;96342.72;;;11.49;100.00
5500;BME280;2772;42.700;23.304;2022-11-13T17:10:16;96348.91;;;11.44;100.00
5500;BME280;2772;42.700;23.304;2022-11-13T17:12:48;96356.66;;;11.41;100.00
5500;BME280;2772;42.700;23.304;2022-11-13T17:15:16;96344.56;;;11.19;100.00
5500;BME280;2772;42.700;23.304;2022-11-13T17:17:43;96346.94;;;11.21;100.00
5500;BME280;2772;42.700;23.304;2022-11-13T17:20:10;96345.59;;;11.23;100.00
5500;BME280;2772;42.700;23.304;2022-11-13T17:22:38;96351.00;;;11.13;100.00
5500;BME280;2772;42.700;23.304;2022-11-13T17:25:05;96355.88;;;11.06;100.00
5500;BME280;2772;42.700;23.304;2022-11-13T17:27:32;96353.72;;;11.08;100.00
5500;BME280;2772;42.700;23.304;2022-11-13T17:29:59;96348.44;;;11.03;100.00
5500;BME280;2772;42.700;23.304;2022-11-13T17:32:27;96340.94;;;11.05;100.00
5500;BME280;2772;42.700;23.304;2022-11-13T17:34:54;96334.84;;;11.05;100.00
5500;BME280;2772;42.700;23.304;2022-11-13T17:37:21;96333.47;;;11.07;100.00
5500;BME280;2772;42.700;23.304;2022-11-13T17:39:48;96342.31;;;11.03;100.00
5500;BME280;2772;42.700;23.304;2022-11-13T17:42:15;96352.75;;;10.94;100.00
5500;BME280;2772;42.700;23.304;2022-11-13T17:44:41;96347.50;;;10.84;100.00
5500;BME280;2772;42.700;23.304;2022-11-13T17:47:08;96344.88;;;10.79;100.00
5500;BME280;2772;42.700;23.304;2022-11-13T17:49:37;96332.91;;;10.77;100.00
5500;BME280;2772;42.700;23.304;2022-11-13T17:52:04;96328.63;;;10.76;100.00
5500;BME280;2772;42.700;23.304;2022-11-13T17:54:30;96339.25;;;10.81;100.00
5500;BME280;2772;42.700;23.304;2022-11-13T17:56:57;96336.88;;;10.79;100.00
5500;BME280;2772;42.700;23.304;2022-11-13T17:59:24;96330.00;;;10.73;100.00
5500;BME280;2772;42.700;23.304;2022-11-13T18:01:50;96325.91;;;10.47;100.00
5500;BME280;2772;42.700;23.304;2022-11-13T18:04:17;96325.84;;;10.52;100.00
5500;BME280;2772;42.700;23.304;2022-11-13T18:06:45;96323.97;;;10.58;100.00
5500;BME280;2772;42.700;23.304;2022-11-13T18:09:14;96329.25;;;10.63;100.00
5500;BME280;2772;42.700;23.304;2022-11-13T18:11:40;96320.72;;;10.66;100.00
5500;BME280;2772;42.700;23.304;2022-11-13T18:14:07;96321.75;;;10.70;100.00
5500;BME280;2772;42.700;23.304;2022-11-13T18:16:34;96327.06;;;10.70;100.00
5500;BME280;2772;42.700;23.304;2022-11-13T18:19:02;96318.31;;;10.69;100.00
5500;BME280;2772;42.700;23.304;2022-11-13T18:21:32;96320.19;;;10.64;100.00
5500;BME280;2772;42.700;23.304;2022-11-13T18:24:03;96322.88;;;10.59;100.00
5500;BME280;2772;42.700;23.304;2022-11-13T18:26:31;96325.34;;;10.50;100.00
5500;BME280;2772;42.700;23.304;2022-11-13T18:28:58;96326.94;;;10.51;100.00
5500;BME280;2772;42.700;23.304;2022-11-13T18:31:25;96337.03;;;10.54;100.00
5500;BME280;2772;42.700;23.304;2022-11-13T18:33:52;96326.44;;;10.44;100.00
5500;BME280;2772;42.700;23.304;2022-11-13T18:36:20;96320.03;;;10.45;100.00
5500;BME280;2772;42.700;23.304;2022-11-13T18:38:46;96311.63;;;10.28;100.00
5500;BME280;2772;42.700;23.304;2022-11-13T18:41:16;96310.50;;;10.34;100.00
5500;BME280;2772;42.700;23.304;2022-11-13T18:43:44;96320.13;;;10.30;100.00
5500;BME280;2772;42.700;23.304;2022-11-13T18:46:12;96323.91;;;10.19;100.00
5500;BME280;2772;42.700;23.304;2022-11-13T18:48:41;96313.81;;;10.11;100.00
5500;BME280;2772;42.700;23.304;2022-11-13T18:51:10;96318.88;;;10.08;100.00
5500;BME280;2772;42.700;23.304;2022-11-13T18:53:37;96318.88;;;10.13;100.00
5500;BME280;2772;42.700;23.304;2022-11-13T18:56:05;96318.63;;;9.99;100.00
5500;BME280;2772;42.700;23.304;2022-11-13T18:58:36;96318.75;;;9.69;100.00
5500;BME280;2772;42.700;23.304;2022-11-13T19:01:07;96310.50;;;9.71;100.00
5500;BME280;2772;42.700;23.304;2022-11-13T19:03:34;96318.16;;;9.82;100.00
5500;BME280;2772;42.700;23.304;2022-11-13T19:06:00;96321.91;;;9.76;100.00
5500;BME280;2772;42.700;23.304;2022-11-13T19:08:27;96320.06;;;9.72;100.00
5500;BME280;2772;42.700;23.304;2022-11-13T19:10:54;96318.22;;;9.62;100.00
5500;BME280;2772;42.700;23.304;2022-11-13T19:13:21;96325.09;;;9.68;100.00
5500;BME280;2772;42.700;23.304;2022-11-13T19:15:49;96326.72;;;9.74;100.00
5500;BME280;2772;42.700;23.304;2022-11-13T19:18:17;96325.69;;;9.55;100.00
5500;BME280;2772;42.700;23.304;2022-11-13T19:44:47;96337.84;;;9.91;100.00
5500;BME280;2772;42.700;23.304;2022-11-13T19:47:14;96344.47;;;9.84;100.00
5500;BME280;2772;42.700;23.304;2022-11-13T19:49:41;96340.53;;;9.71;100.00
5500;BME280;2772;42.700;23.304;2022-11-13T19:52:08;96333.91;;;9.68;100.00
5500;BME280;2772;42.700;23.304;2022-11-13T19:54:34;96319.78;;;9.78;100.00
5500;BME280;2772;42.700;23.304;2022-11-13T19:57:01;96320.88;;;9.62;100.00
5500;BME280;2772;42.700;23.304;2022-11-13T19:59:28;96316.09;;;9.59;100.00
5500;BME280;2772;42.700;23.304;2022-11-13T20:01:56;96316.84;;;9.69;100.00
5500;BME280;2772;42.700;23.304;2022-11-13T20:04:23;96305.94;;;9.81;100.00
5500;BME280;2772;42.700;23.304;2022-11-13T20:06:49;96315.53;;;9.72;100.00
5500;BME280;2772;42.700;23.304;2022-11-13T20:09:16;96312.59;;;9.79;100.00
5500;BME280;2772;42.700;23.304;2022-11-13T20:11:43;96316.00;;;9.94;100.00
5500;BME280;2772;42.700;23.304;2022-11-13T20:14:10;96308.53;;;9.96;100.00
5500;BME280;2772;42.700;23.304;2022-11-13T20:16:37;96308.56;;;9.91;100.00
5500;BME280;2772;42.700;23.304;2022-11-13T20:19:05;96302.91;;;10.08;100.00
5500;BME280;2772;42.700;23.304;2022-11-13T20:21:32;96303.97;;;10.07;100.00
5500;BME280;2772;42.700;23.304;2022-11-13T20:23:59;96304.78;;;10.07;100.00
5500;BME280;2772;42.700;23.304;2022-11-13T20:26:26;96300.53;;;10.01;100.00